首页
METAR-TAF:

METAR-TAF

机场 :

尼诺伊·阿基诺国际机场

马尼拉, 菲律宾

纬度: 14-31N, 经度: 121-00E, 海拔: 14米

当前天气观测

该预报发布于38分钟前的23:00 UTC
风速2节,风向多变
温度 26°C
湿度 89%
气压 1009 hPa
能见度10公里或以上
少量云层高于2300英尺
散云层高于10000英尺
多云层高于29000英尺

METAR: RPLL 142300Z VRB02KT 9999 FEW023 SCT100 BKN290 26/24 Q1009 NOSIG RMK A2980

时间: 07:38 (23:38 UTC)

预报

该预报发布于6小时和38分钟前的17:00 UTC
预报有效从14日的 18点(UTC)到 15日的 24点(UTC)
风速7节,风向西
能见度10公里或以上
少量云层高于2300英尺
多云层高于10000英尺
短暂存在
从 14日的 18点(UTC)到 14日的 24点(UTC)
风速3节,风向多变
散云层高于2300英尺
多云层高于9000英尺
短暂存在
从 15日的 00点(UTC)到 15日的 06点(UTC)
风速10节,风向西北
散云层高于2300英尺
阴天层高于10000英尺

TAF: RPLL 141700Z 1418/1524 28007KT 9999 FEW023 BKN100 TX30/1506Z TN26/1421Z TEMPO 1418/1424 VRB03KT SCT023 BKN090 TEMPO 1500/1506 31010KT SCT023 OVC100

超过4000个机场的气象观测和天气预报(METAR&TAF报告)。

可查询的气象台以黄色和红色小点在地图上表示。

将鼠标移到小点上方,可查看气象台名称。

然后点击查看天气观测和预报。

如需切换地图:点击带黑十字的绿色按钮放大地图;点击带横线的绿色按钮缩小地图;或者点击绿色箭头查看邻近地区的地图。


METAR-TAF: